sensor_id;sensor_type;location;lat;lon;timestamp;pressure;altitude;pressure_sealevel;temperature;humidity
37132;BME280;23035;50.032;21.978;2023-01-25T00:02:54;65537.19;;;3.51;100.00
37132;BME280;23035;50.032;21.978;2023-01-25T00:07:59;65507.47;;;3.25;100.00
37132;BME280;23035;50.032;21.978;2023-01-25T00:13:04;65538.56;;;3.60;100.00
37132;BME280;23035;50.032;21.978;2023-01-25T00:18:08;65523.97;;;3.41;100.00
37132;BME280;23035;50.032;21.978;2023-01-25T00:23:13;65518.66;;;3.36;100.00
37132;BME280;23035;50.032;21.978;2023-01-25T00:28:20;65489.22;;;3.05;100.00
37132;BME280;23035;50.032;21.978;2023-01-25T00:33:32;65526.63;;;3.43;100.00
37132;BME280;23035;50.032;21.978;2023-01-25T00:38:42;65527.72;;;3.44;100.00
37132;BME280;23035;50.032;21.978;2023-01-25T00:43:48;65542.09;;;3.58;100.00
37132;BME280;23035;50.032;21.978;2023-01-25T00:48:55;65535.41;;;3.44;100.00
37132;BME280;23035;50.032;21.978;2023-01-25T00:54:00;65473.13;;;2.87;100.00
37132;BME280;23035;50.032;21.978;2023-01-25T00:59:06;65498.28;;;3.14;100.00
37132;BME280;23035;50.032;21.978;2023-01-25T01:04:11;65480.59;;;2.95;100.00
37132;BME280;23035;50.032;21.978;2023-01-25T01:09:18;65449.88;;;2.70;100.00
37132;BME280;23035;50.032;21.978;2023-01-25T01:14:29;65473.75;;;2.91;100.00
37132;BME280;23035;50.032;21.978;2023-01-25T01:19:37;65466.41;;;2.86;100.00
37132;BME280;23035;50.032;21.978;2023-01-25T01:24:42;65471.00;;;2.85;100.00
37132;BME280;23035;50.032;21.978;2023-01-25T01:29:48;65474.41;;;2.94;100.00
37132;BME280;23035;50.032;21.978;2023-01-25T01:34:54;65511.63;;;3.27;100.00
37132;BME280;23035;50.032;21.978;2023-01-25T01:39:58;65411.88;;;2.29;100.00
37132;BME280;23035;50.032;21.978;2023-01-25T01:50:43;65523.34;;;3.38;100.00
37132;BME280;23035;50.032;21.978;2023-01-25T01:55:48;65448.09;;;2.64;100.00
37132;BME280;23035;50.032;21.978;2023-01-25T02:00:54;65472.69;;;2.90;100.00
37132;BME280;23035;50.032;21.978;2023-01-25T02:06:03;65544.03;;;3.55;100.00
37132;BME280;23035;50.032;21.978;2023-01-25T02:11:11;65566.63;;;3.82;100.00
37132;BME280;23035;50.032;21.978;2023-01-25T02:16:18;65508.00;;;3.26;100.00
37132;BME280;23035;50.032;21.978;2023-01-25T02:21:32;65540.59;;;3.59;100.00
37132;BME280;23035;50.032;21.978;2023-01-25T02:26:42;65499.78;;;3.13;100.00
37132;BME280;23035;50.032;21.978;2023-01-25T02:31:48;65529.09;;;3.41;100.00
37132;BME280;23035;50.032;21.978;2023-01-25T02:36:54;65591.19;;;4.05;100.00
37132;BME280;23035;50.032;21.978;2023-01-25T02:42:01;65419.97;;;2.39;100.00
37132;BME280;23035;50.032;21.978;2023-01-25T02:47:06;65463.75;;;2.83;100.00
37132;BME280;23035;50.032;21.978;2023-01-25T02:52:11;65297.50;;;1.22;100.00
37132;BME280;23035;50.032;21.978;2023-01-25T02:57:17;65292.81;;;1.20;100.00
37132;BME280;23035;50.032;21.978;2023-01-25T03:02:25;65289.59;;;1.17;100.00
37132;BME280;23035;50.032;21.978;2023-01-25T03:07:32;65269.63;;;0.91;100.00
37132;BME280;23035;50.032;21.978;2023-01-25T03:12:40;65227.91;;;0.58;100.00
37132;BME280;23035;50.032;21.978;2023-01-25T03:17:45;65273.13;;;1.01;100.00
37132;BME280;23035;50.032;21.978;2023-01-25T03:22:50;65365.00;;;1.84;100.00
37132;BME280;23035;50.032;21.978;2023-01-25T03:27:56;65338.56;;;1.64;100.00
37132;BME280;23035;50.032;21.978;2023-01-25T03:33:02;65365.22;;;1.89;100.00
37132;BME280;23035;50.032;21.978;2023-01-25T03:38:08;65366.28;;;1.90;100.00
37132;BME280;23035;50.032;21.978;2023-01-25T03:43:14;65397.78;;;2.23;100.00
37132;BME280;23035;50.032;21.978;2023-01-25T03:48:25;65375.50;;;2.04;100.00
37132;BME280;23035;50.032;21.978;2023-01-25T03:53:31;65338.56;;;1.64;100.00
37132;BME280;23035;50.032;21.978;2023-01-25T03:58:46;65462.66;;;2.82;100.00
37132;BME280;23035;50.032;21.978;2023-01-25T04:03:52;65397.69;;;2.20;100.00
37132;BME280;23035;50.032;21.978;2023-01-25T04:08:56;65410.81;;;2.28;100.00
37132;BME280;23035;50.032;21.978;2023-01-25T04:14:09;65396.53;;;2.17;100.00
37132;BME280;23035;50.032;21.978;2023-01-25T04:19:22;65425.38;;;2.47;100.00
37132;BME280;23035;50.032;21.978;2023-01-25T04:24:31;65418.91;;;2.38;100.00
37132;BME280;23035;50.032;21.978;2023-01-25T04:29:37;65345.81;;;1.66;100.00
37132;BME280;23035;50.032;21.978;2023-01-25T04:34:50;65347.53;;;1.70;100.00
37132;BME280;23035;50.032;21.978;2023-01-25T04:39:57;65343.38;;;1.68;100.00
37132;BME280;23035;50.032;21.978;2023-01-25T04:45:10;65304.41;;;1.29;100.00
37132;BME280;23035;50.032;21.978;2023-01-25T04:50:16;65303.25;;;1.25;100.00
37132;BME280;23035;50.032;21.978;2023-01-25T04:55:21;65331.47;;;1.52;100.00
37132;BME280;23035;50.032;21.978;2023-01-25T05:00:30;65338.56;;;1.64;100.00
37132;BME280;23035;50.032;21.978;2023-01-25T05:05:36;65336.88;;;1.60;100.00
37132;BME280;23035;50.032;21.978;2023-01-25T05:10:46;65256.00;;;0.82;100.00
37132;BME280;23035;50.032;21.978;2023-01-25T05:16:09;65319.94;;;1.46;100.00
37132;BME280;23035;50.032;21.978;2023-01-25T05:21:14;65315.69;;;1.42;100.00
37132;BME280;23035;50.032;21.978;2023-01-25T05:26:35;65352.84;;;1.75;100.00
37132;BME280;23035;50.032;21.978;2023-01-25T05:31:58;65386.50;;;2.10;100.00
37132;BME280;23035;50.032;21.978;2023-01-25T05:37:06;65298.56;;;1.23;100.00
37132;BME280;23035;50.032;21.978;2023-01-25T05:42:16;65273.44;;;0.97;100.00
37132;BME280;23035;50.032;21.978;2023-01-25T05:47:24;65280.47;;;1.06;100.00
37132;BME280;23035;50.032;21.978;2023-01-25T05:52:30;65323.69;;;1.50;100.00
37132;BME280;23035;50.032;21.978;2023-01-25T05:57:35;65314.63;;;1.41;100.00
37132;BME280;23035;50.032;21.978;2023-01-25T06:02:41;65330.28;;;1.49;100.00
37132;BME280;23035;50.032;21.978;2023-01-25T06:07:51;65351.34;;;1.76;100.00
37132;BME280;23035;50.032;21.978;2023-01-25T06:12:59;65391.19;;;2.12;100.00
37132;BME280;23035;50.032;21.978;2023-01-25T06:18:05;65345.81;;;1.66;100.00
37132;BME280;23035;50.032;21.978;2023-01-25T06:23:33;65391.72;;;2.12;100.00
37132;BME280;23035;50.032;21.978;2023-01-25T06:28:41;65434.88;;;2.53;100.00
37132;BME280;23035;50.032;21.978;2023-01-25T06:33:49;65413.13;;;2.35;100.00
37132;BME280;23035;50.032;21.978;2023-01-25T06:38:57;65431.25;;;2.52;100.00
37132;BME280;23035;50.032;21.978;2023-01-25T06:44:02;65459.38;;;2.77;100.00
37132;BME280;23035;50.032;21.978;2023-01-25T06:49:09;65411.88;;;2.29;100.00
37132;BME280;23035;50.032;21.978;2023-01-25T06:54:13;65411.34;;;2.28;100.00
37132;BME280;23035;50.032;21.978;2023-01-25T06:59:18;65451.50;;;2.72;100.00
37132;BME280;23035;50.032;21.978;2023-01-25T07:04:24;65520.34;;;3.40;100.00
37132;BME280;23035;50.032;21.978;2023-01-25T07:09:28;65515.66;;;3.38;100.00
37132;BME280;23035;50.032;21.978;2023-01-25T07:14:32;65578.69;;;3.88;100.00
37132;BME280;23035;50.032;21.978;2023-01-25T07:19:38;65526.09;;;3.43;100.00
37132;BME280;23035;50.032;21.978;2023-01-25T07:24:43;65380.44;;;1.99;100.00
37132;BME280;23035;50.032;21.978;2023-01-25T07:29:52;65447.66;;;2.66;100.00
37132;BME280;23035;50.032;21.978;2023-01-25T07:34:58;65423.69;;;2.43;100.00
37132;BME280;23035;50.032;21.978;2023-01-25T07:40:03;65469.59;;;2.89;100.00
37132;BME280;23035;50.032;21.978;2023-01-25T07:45:08;65522.47;;;3.42;100.00
37132;BME280;23035;50.032;21.978;2023-01-25T07:50:16;65496.69;;;3.12;100.00
37132;BME280;23035;50.032;21.978;2023-01-25T07:55:20;65513.41;;;3.33;100.00
37132;BME280;23035;50.032;21.978;2023-01-25T08:00:25;65480.06;;;2.94;100.00
37132;BME280;23035;50.032;21.978;2023-01-25T08:05:31;65548.50;;;3.64;100.00
37132;BME280;23035;50.032;21.978;2023-01-25T08:10:37;65370.53;;;1.94;100.00
37132;BME280;23035;50.032;21.978;2023-01-25T08:15:43;65313.44;;;1.37;100.00
37132;BME280;23035;50.032;21.978;2023-01-25T08:20:49;65391.28;;;2.14;100.00
37132;BME280;23035;50.032;21.978;2023-01-25T08:25:54;65533.38;;;3.45;100.00
37132;BME280;23035;50.032;21.978;2023-01-25T08:31:06;65585.84;;;4.00;100.00
37132;BME280;23035;50.032;21.978;2023-01-25T08:36:13;65606.09;;;4.19;100.00
37132;BME280;23035;50.032;21.978;2023-01-25T08:41:18;65634.72;;;4.42;100.00
37132;BME280;23035;50.032;21.978;2023-01-25T08:46:24;65526.09;;;3.43;100.00
37132;BME280;23035;50.032;21.978;2023-01-25T08:51:34;65577.72;;;3.90;100.00
37132;BME280;23035;50.032;21.978;2023-01-25T08:56:39;65615.53;;;4.23;100.00
37132;BME280;23035;50.032;21.978;2023-01-25T09:01:44;65667.31;;;4.87;100.00
37132;BME280;23035;50.032;21.978;2023-01-25T09:06:50;65704.47;;;5.03;100.00
37132;BME280;23035;50.032;21.978;2023-01-25T09:11:54;65604.41;;;4.15;100.00
37132;BME280;23035;50.032;21.978;2023-01-25T09:16:58;65627.34;;;4.37;100.00
37132;BME280;23035;50.032;21.978;2023-01-25T09:22:04;65624.34;;;4.39;100.00
37132;BME280;23035;50.032;21.978;2023-01-25T09:27:08;65609.28;;;4.22;100.00
37132;BME280;23035;50.032;21.978;2023-01-25T09:32:12;65526.09;;;3.43;100.00
37132;BME280;23035;50.032;21.978;2023-01-25T09:37:28;65453.63;;;2.74;100.00
37132;BME280;23035;50.032;21.978;2023-01-25T09:42:39;65543.50;;;3.55;100.00
37132;BME280;23035;50.032;21.978;2023-01-25T09:47:50;65510.66;;;3.28;100.00
37132;BME280;23035;50.032;21.978;2023-01-25T09:53:26;65546.16;;;3.57;100.00
37132;BME280;23035;50.032;21.978;2023-01-25T09:58:37;65473.88;;;2.93;100.00
37132;BME280;23035;50.032;21.978;2023-01-25T10:03:49;65530.38;;;3.47;100.00
37132;BME280;23035;50.032;21.978;2023-01-25T10:09:02;65496.06;;;3.09;100.00
37132;BME280;23035;50.032;21.978;2023-01-25T10:14:13;65439.03;;;2.55;100.00
37132;BME280;23035;50.032;21.978;2023-01-25T10:19:22;65555.97;;;3.71;100.00
37132;BME280;23035;50.032;21.978;2023-01-25T10:30:20;65482.94;;;3.02;100.00
37132;BME280;23035;50.032;21.978;2023-01-25T10:35:31;65457.88;;;2.78;100.00
37132;BME280;23035;50.032;21.978;2023-01-25T10:40:45;65467.91;;;2.85;100.00
37132;BME280;23035;50.032;21.978;2023-01-25T10:45:55;65404.09;;;2.26;100.00
37132;BME280;23035;50.032;21.978;2023-01-25T10:50:59;65448.19;;;2.66;100.00
37132;BME280;23035;50.032;21.978;2023-01-25T10:56:13;65422.09;;;2.41;100.00
37132;BME280;23035;50.032;21.978;2023-01-25T11:01:27;65386.41;;;2.07;100.00
37132;BME280;23035;50.032;21.978;2023-01-25T11:06:34;65405.69;;;2.28;100.00
37132;BME280;23035;50.032;21.978;2023-01-25T11:11:41;65425.63;;;2.40;100.00
37132;BME280;23035;50.032;21.978;2023-01-25T11:16:47;65420.25;;;2.47;100.00
37132;BME280;23035;50.032;21.978;2023-01-25T11:21:53;65423.59;;;2.40;100.00
37132;BME280;23035;50.032;21.978;2023-01-25T11:27:12;65449.78;;;2.68;100.00
37132;BME280;23035;50.032;21.978;2023-01-25T11:32:21;65516.41;;;3.31;100.00
37132;BME280;23035;50.032;21.978;2023-01-25T11:37:43;65441.25;;;2.59;100.00
37132;BME280;23035;50.032;21.978;2023-01-25T11:43:00;65488.69;;;3.05;100.00
37132;BME280;23035;50.032;21.978;2023-01-25T11:48:21;65505.22;;;3.21;100.00
37132;BME280;23035;50.032;21.978;2023-01-25T11:53:51;65380.63;;;2.04;100.00
37132;BME280;23035;50.032;21.978;2023-01-25T11:59:13;65363.41;;;1.83;100.00
37132;BME280;23035;50.032;21.978;2023-01-25T12:04:40;65375.22;;;1.96;100.00
37132;BME280;23035;50.032;21.978;2023-01-25T12:09:59;65376.69;;;1.95;100.00
37132;BME280;23035;50.032;21.978;2023-01-25T12:15:25;65464.16;;;2.81;100.00
37132;BME280;23035;50.032;21.978;2023-01-25T12:20:40;65530.91;;;3.48;100.00
37132;BME280;23035;50.032;21.978;2023-01-25T12:25:54;65529.31;;;3.46;100.00
37132;BME280;23035;50.032;21.978;2023-01-25T12:31:06;65508.00;;;3.26;100.00
37132;BME280;23035;50.032;21.978;2023-01-25T12:36:17;65558.63;;;3.74;100.00
37132;BME280;23035;50.032;21.978;2023-01-25T12:41:35;65563.88;;;3.77;100.00
37132;BME280;23035;50.032;21.978;2023-01-25T12:46:45;65552.56;;;3.63;100.00
37132;BME280;23035;50.032;21.978;2023-01-25T12:51:54;65548.59;;;3.67;100.00
37132;BME280;23035;50.032;21.978;2023-01-25T12:57:09;65501.94;;;3.15;100.00
37132;BME280;23035;50.032;21.978;2023-01-25T13:07:57;65616.78;;;4.29;100.00
37132;BME280;23035;50.032;21.978;2023-01-25T13:13:17;65595.78;;;4.05;100.00
37132;BME280;23035;50.032;21.978;2023-01-25T13:18:38;65516.72;;;3.39;100.00
37132;BME280;23035;50.032;21.978;2023-01-25T13:23:44;65554.38;;;3.70;100.00
37132;BME280;23035;50.032;21.978;2023-01-25T13:28:51;65556.50;;;3.72;100.00
37132;BME280;23035;50.032;21.978;2023-01-25T13:33:56;65559.59;;;3.72;100.00
37132;BME280;23035;50.032;21.978;2023-01-25T13:44:48;65561.22;;;3.74;100.00
37132;BME280;23035;50.032;21.978;2023-01-25T13:49:58;65512.78;;;3.30;100.00
37132;BME280;23035;50.032;21.978;2023-01-25T13:55:16;65537.28;;;3.54;100.00
37132;BME280;23035;50.032;21.978;2023-01-25T14:00:21;65516.94;;;3.32;100.00
37132;BME280;23035;50.032;21.978;2023-01-25T14:05:26;65509.59;;;3.27;100.00
37132;BME280;23035;50.032;21.978;2023-01-25T14:10:31;65391.72;;;2.12;100.00
37132;BME280;23035;50.032;21.978;2023-01-25T14:15:36;65406.75;;;2.29;100.00
37132;BME280;23035;50.032;21.978;2023-01-25T14:20:41;65388.00;;;2.09;100.00
37132;BME280;23035;50.032;21.978;2023-01-25T14:25:47;65396.09;;;2.19;100.00
37132;BME280;23035;50.032;21.978;2023-01-25T14:30:52;65340.16;;;1.65;100.00
37132;BME280;23035;50.032;21.978;2023-01-25T14:36:02;65387.47;;;2.08;100.00
37132;BME280;23035;50.032;21.978;2023-01-25T14:41:30;65362.00;;;1.86;100.00
37132;BME280;23035;50.032;21.978;2023-01-25T14:46:36;65406.09;;;2.26;100.00
37132;BME280;23035;50.032;21.978;2023-01-25T14:51:43;65481.31;;;3.00;100.00
37132;BME280;23035;50.032;21.978;2023-01-25T14:56:51;65472.91;;;2.95;100.00
37132;BME280;23035;50.032;21.978;2023-01-25T15:01:58;65520.25;;;3.37;100.00
37132;BME280;23035;50.032;21.978;2023-01-25T15:07:03;65501.59;;;3.20;100.00
37132;BME280;23035;50.032;21.978;2023-01-25T15:12:22;65568.13;;;3.81;100.00
37132;BME280;23035;50.032;21.978;2023-01-25T15:17:45;65388.09;;;2.11;100.00
37132;BME280;23035;50.032;21.978;2023-01-25T15:22:50;65370.31;;;1.89;100.00
37132;BME280;23035;50.032;21.978;2023-01-25T15:27:56;65466.22;;;2.81;100.00
37132;BME280;23035;50.032;21.978;2023-01-25T15:33:00;65398.00;;;2.16;100.00
37132;BME280;23035;50.032;21.978;2023-01-25T15:38:07;65451.28;;;2.67;100.00
37132;BME280;23035;50.032;21.978;2023-01-25T15:43:15;65476.97;;;2.94;100.00
37132;BME280;23035;50.032;21.978;2023-01-25T15:48:25;65394.50;;;2.17;100.00
37132;BME280;23035;50.032;21.978;2023-01-25T15:53:31;65301.34;;;1.28;100.00
37132;BME280;23035;50.032;21.978;2023-01-25T15:58:38;65364.16;;;1.88;100.00
37132;BME280;23035;50.032;21.978;2023-01-25T16:03:44;65384.38;;;2.08;100.00
37132;BME280;23035;50.032;21.978;2023-01-25T16:08:48;65359.88;;;1.84;100.00
37132;BME280;23035;50.032;21.978;2023-01-25T16:13:54;65248.53;;;0.75;100.00
37132;BME280;23035;50.032;21.978;2023-01-25T16:18:59;65335.72;;;1.56;100.00
37132;BME280;23035;50.032;21.978;2023-01-25T16:24:04;65385.44;;;2.09;100.00
37132;BME280;23035;50.032;21.978;2023-01-25T16:29:10;65401.94;;;2.24;100.00
37132;BME280;23035;50.032;21.978;2023-01-25T16:34:15;65389.06;;;2.10;100.00
37132;BME280;23035;50.032;21.978;2023-01-25T16:39:21;65310.47;;;1.39;100.00
37132;BME280;23035;50.032;21.978;2023-01-25T16:44:29;65335.38;;;1.61;100.00
37132;BME280;23035;50.032;21.978;2023-01-25T16:49:34;65407.81;;;2.30;100.00
37132;BME280;23035;50.032;21.978;2023-01-25T16:54:38;65386.59;;;2.12;100.00
37132;BME280;23035;50.032;21.978;2023-01-25T16:59:44;65339.09;;;1.64;100.00
37132;BME280;23035;50.032;21.978;2023-01-25T17:04:49;65417.31;;;2.37;100.00
37132;BME280;23035;50.032;21.978;2023-01-25T17:09:53;65471.72;;;2.91;100.00
37132;BME280;23035;50.032;21.978;2023-01-25T17:14:59;65391.72;;;2.12;100.00
37132;BME280;23035;50.032;21.978;2023-01-25T17:20:03;65292.38;;;1.22;100.00
37132;BME280;23035;50.032;21.978;2023-01-25T17:25:08;65352.84;;;1.75;100.00
37132;BME280;23035;50.032;21.978;2023-01-25T17:30:14;65380.97;;;1.99;100.00
37132;BME280;23035;50.032;21.978;2023-01-25T17:35:20;65326.25;;;1.50;100.00
37132;BME280;23035;50.032;21.978;2023-01-25T17:40:24;65393.97;;;2.17;100.00
37132;BME280;23035;50.032;21.978;2023-01-25T17:45:30;65401.31;;;2.21;100.00
37132;BME280;23035;50.032;21.978;2023-01-25T17:50:40;65354.34;;;1.74;100.00
37132;BME280;23035;50.032;21.978;2023-01-25T17:55:45;65382.75;;;2.06;100.00
37132;BME280;23035;50.032;21.978;2023-01-25T18:00:50;65319.41;;;1.46;100.00
37132;BME280;23035;50.032;21.978;2023-01-25T18:06:07;65350.81;;;1.76;100.00
37132;BME280;23035;50.032;21.978;2023-01-25T18:11:14;65331.88;;;1.62;100.00
37132;BME280;23035;50.032;21.978;2023-01-25T18:16:21;65386.50;;;2.10;100.00
37132;BME280;23035;50.032;21.978;2023-01-25T18:21:28;65315.16;;;1.41;100.00
37132;BME280;23035;50.032;21.978;2023-01-25T18:26:34;65362.53;;;1.87;100.00
37132;BME280;23035;50.032;21.978;2023-01-25T18:31:41;65335.38;;;1.61;100.00
37132;BME280;23035;50.032;21.978;2023-01-25T18:36:47;65326.88;;;1.53;100.00
37132;BME280;23035;50.032;21.978;2023-01-25T18:41:53;65327.84;;;1.51;100.00
37132;BME280;23035;50.032;21.978;2023-01-25T18:46:59;65338.03;;;1.63;100.00
37132;BME280;23035;50.032;21.978;2023-01-25T18:52:04;65340.06;;;1.63;100.00
37132;BME280;23035;50.032;21.978;2023-01-25T18:57:14;65318.34;;;1.44;100.00
37132;BME280;23035;50.032;21.978;2023-01-25T19:02:20;65368.28;;;1.90;100.00
37132;BME280;23035;50.032;21.978;2023-01-25T19:07:25;65325.81;;;1.52;100.00
37132;BME280;23035;50.032;21.978;2023-01-25T19:12:29;65328.38;;;1.52;100.00
37132;BME280;23035;50.032;21.978;2023-01-25T19:17:35;65298.03;;;1.23;100.00
37132;BME280;23035;50.032;21.978;2023-01-25T19:22:39;65296.44;;;1.21;100.00
37132;BME280;23035;50.032;21.978;2023-01-25T19:27:44;65281.66;;;1.09;100.00
37132;BME280;23035;50.032;21.978;2023-01-25T19:32:50;65291.00;;;1.13;100.00
37132;BME280;23035;50.032;21.978;2023-01-25T19:37:54;65248.84;;;0.83;100.00
37132;BME280;23035;50.032;21.978;2023-01-25T19:42:59;65303.34;;;1.28;100.00
37132;BME280;23035;50.032;21.978;2023-01-25T19:48:06;65277.50;;;0.96;100.00
37132;BME280;23035;50.032;21.978;2023-01-25T19:53:11;65329.00;;;1.55;100.00
37132;BME280;23035;50.032;21.978;2023-01-25T19:58:15;65268.13;;;0.92;100.00
37132;BME280;23035;50.032;21.978;2023-01-25T20:03:21;65277.28;;;1.03;100.00
37132;BME280;23035;50.032;21.978;2023-01-25T20:08:40;65282.28;;;1.12;100.00
37132;BME280;23035;50.032;21.978;2023-01-25T20:13:45;65278.44;;;1.06;100.00
37132;BME280;23035;50.032;21.978;2023-01-25T20:18:54;65295.38;;;1.20;100.00
37132;BME280;23035;50.032;21.978;2023-01-25T20:24:03;65281.44;;;1.04;100.00
37132;BME280;23035;50.032;21.978;2023-01-25T20:29:10;65267.50;;;0.89;100.00
37132;BME280;23035;50.032;21.978;2023-01-25T20:34:19;65249.59;;;0.76;100.00
37132;BME280;23035;50.032;21.978;2023-01-25T20:39:23;65292.28;;;1.20;100.00
37132;BME280;23035;50.032;21.978;2023-01-25T20:44:28;65268.75;;;0.95;100.00
37132;BME280;23035;50.032;21.978;2023-01-25T20:49:34;65324.22;;;1.50;100.00
37132;BME280;23035;50.032;21.978;2023-01-25T20:54:40;65327.41;;;1.53;100.00
37132;BME280;23035;50.032;21.978;2023-01-25T20:59:44;65276.13;;;0.99;100.00
37132;BME280;23035;50.032;21.978;2023-01-25T21:04:50;65307.59;;;1.32;100.00
37132;BME280;23035;50.032;21.978;2023-01-25T21:09:55;65387.34;;;2.06;100.00
37132;BME280;23035;50.032;21.978;2023-01-25T21:14:59;65415.69;;;2.35;100.00
37132;BME280;23035;50.032;21.978;2023-01-25T21:20:06;65275.59;;;0.99;100.00
37132;BME280;23035;50.032;21.978;2023-01-25T21:25:11;65360.31;;;1.82;100.00
37132;BME280;23035;50.032;21.978;2023-01-25T21:30:16;65264.06;;;0.93;100.00
37132;BME280;23035;50.032;21.978;2023-01-25T21:35:22;65273.66;;;1.02;100.00
37132;BME280;23035;50.032;21.978;2023-01-25T21:40:26;65276.84;;;1.05;100.00
37132;BME280;23035;50.032;21.978;2023-01-25T21:45:32;65296.44;;;1.21;100.00
37132;BME280;23035;50.032;21.978;2023-01-25T21:50:59;65283.13;;;1.08;100.00
37132;BME280;23035;50.032;21.978;2023-01-25T21:56:23;65287.06;;;1.17;100.00
37132;BME280;23035;50.032;21.978;2023-01-25T22:01:30;65324.53;;;1.46;100.00
37132;BME280;23035;50.032;21.978;2023-01-25T22:06:38;65337.50;;;1.63;100.00
37132;BME280;23035;50.032;21.978;2023-01-25T22:11:43;65381.69;;;2.05;100.00
37132;BME280;23035;50.032;21.978;2023-01-25T22:16:48;65336.34;;;1.59;100.00
37132;BME280;23035;50.032;21.978;2023-01-25T22:21:54;65316.13;;;1.40;100.00
37132;BME280;23035;50.032;21.978;2023-01-25T22:27:25;65366.81;;;1.91;100.00
37132;BME280;23035;50.032;21.978;2023-01-25T22:32:30;65301.34;;;1.28;100.00
37132;BME280;23035;50.032;21.978;2023-01-25T22:37:36;65312.91;;;1.37;100.00
37132;BME280;23035;50.032;21.978;2023-01-25T22:42:41;65259.84;;;0.89;100.00
37132;BME280;23035;50.032;21.978;2023-01-25T22:47:45;65249.19;;;0.78;100.00
37132;BME280;23035;50.032;21.978;2023-01-25T22:52:51;65234.81;;;0.65;100.00
37132;BME280;23035;50.032;21.978;2023-01-25T22:57:55;65267.69;;;0.94;100.00
37132;BME280;23035;50.032;21.978;2023-01-25T23:02:59;65281.53;;;1.07;100.00
37132;BME280;23035;50.032;21.978;2023-01-25T23:08:08;65262.81;;;0.86;100.00
37132;BME280;23035;50.032;21.978;2023-01-25T23:13:12;65310.78;;;1.35;100.00
37132;BME280;23035;50.032;21.978;2023-01-25T23:18:17;65256.19;;;0.88;100.00
37132;BME280;23035;50.032;21.978;2023-01-25T23:23:40;65346.03;;;1.71;100.00
37132;BME280;23035;50.032;21.978;2023-01-25T23:28:48;65378.84;;;1.97;100.00
37132;BME280;23035;50.032;21.978;2023-01-25T23:33:57;65344.97;;;1.70;100.00
37132;BME280;23035;50.032;21.978;2023-01-25T23:39:04;65273.03;;;0.99;100.00
37132;BME280;23035;50.032;21.978;2023-01-25T23:44:08;65277.28;;;1.03;100.00
37132;BME280;23035;50.032;21.978;2023-01-25T23:49:13;65390.22;;;2.13;100.00
37132;BME280;23035;50.032;21.978;2023-01-25T23:54:19;65470.47;;;2.85;100.00
37132;BME280;23035;50.032;21.978;2023-01-25T23:59:23;65473.88;;;2.93;100.00
